createdAt,value
2019-03-11T00:01:03.710Z,6.77
2019-03-11T00:03:31.703Z,6.37
2019-03-11T00:05:59.610Z,6.20
2019-03-11T00:08:27.529Z,6.40
2019-03-11T00:10:56.849Z,6.83
2019-03-11T00:13:25.431Z,7.37
2019-03-11T00:15:53.352Z,6.60
2019-03-11T00:18:21.510Z,6.77
2019-03-11T00:20:49.679Z,7.23
2019-03-11T00:23:17.565Z,6.70
2019-03-11T00:25:45.504Z,6.77
2019-03-11T00:28:13.498Z,7.67
2019-03-11T00:30:41.464Z,7.03
2019-03-11T00:33:09.384Z,6.90
2019-03-11T00:35:37.335Z,6.43
2019-03-11T00:38:05.328Z,7.00
2019-03-11T00:40:33.287Z,7.20
2019-03-11T00:43:01.231Z,6.57
2019-03-11T00:45:29.346Z,7.23
2019-03-11T00:48:02.054Z,7.10
2019-03-11T00:50:27.073Z,6.93
2019-03-11T00:52:55.001Z,6.63
2019-03-11T00:55:23.256Z,7.00
2019-03-11T00:57:51.544Z,7.03
2019-03-11T01:00:30.689Z,6.67
2019-03-11T01:02:58.693Z,6.30
2019-03-11T01:05:26.633Z,6.30
2019-03-11T01:07:54.529Z,5.80
2019-03-11T01:10:22.464Z,5.87
2019-03-11T01:12:50.488Z,6.20
2019-03-11T01:15:18.400Z,5.93
2019-03-11T01:17:46.384Z,5.77
2019-03-11T01:20:14.463Z,6.17
2019-03-11T01:22:42.413Z,5.60
2019-03-11T01:25:10.488Z,6.23
2019-03-11T01:27:38.420Z,6.17
2019-03-11T01:30:06.456Z,6.97
2019-03-11T01:32:34.680Z,6.87
2019-03-11T01:35:02.621Z,6.60
2019-03-11T01:37:30.531Z,6.40
2019-03-11T01:39:58.459Z,6.20
2019-03-11T01:42:26.388Z,6.00
2019-03-11T01:44:54.293Z,5.63
2019-03-11T01:47:22.197Z,5.87
2019-03-11T01:49:50.122Z,6.10
2019-03-11T01:52:18.000Z,5.50
2019-03-11T01:54:45.975Z,5.93
2019-03-11T01:57:13.882Z,5.70
2019-03-11T01:59:41.797Z,6.23
2019-03-11T02:02:09.748Z,5.73
2019-03-11T02:04:37.895Z,5.83
2019-03-11T02:07:05.814Z,5.97
2019-03-11T02:09:33.782Z,6.53
2019-03-11T02:12:02.201Z,6.77
2019-03-11T02:14:30.168Z,5.60
2019-03-11T02:16:58.248Z,6.57
2019-03-11T02:19:26.174Z,6.63
2019-03-11T02:21:54.158Z,5.73
2019-03-11T02:24:22.101Z,6.03
2019-03-11T02:26:50.021Z,6.23
2019-03-11T02:29:17.968Z,6.03
2019-03-11T02:31:45.885Z,6.00
2019-03-11T02:34:14.157Z,6.17
2019-03-11T02:36:42.583Z,5.60
2019-03-11T02:39:10.601Z,5.30
2019-03-11T02:41:39.000Z,5.63
2019-03-11T02:44:06.994Z,5.40
2019-03-11T02:46:34.926Z,5.20
2019-03-11T02:49:02.817Z,5.80
2019-03-11T02:51:30.851Z,6.13
2019-03-11T02:53:59.088Z,6.43
2019-03-11T02:56:26.987Z,6.80
2019-03-11T02:58:54.897Z,6.10
2019-03-11T03:01:40.149Z,5.70
2019-03-11T03:04:30.443Z,6.07
2019-03-11T03:06:58.333Z,6.23
2019-03-11T03:09:26.236Z,6.57
2019-03-11T03:11:54.160Z,7.37
2019-03-11T03:14:22.067Z,5.97
2019-03-11T03:16:49.980Z,6.00
2019-03-11T03:19:17.961Z,5.97
2019-03-11T03:21:45.842Z,5.17
2019-03-11T03:24:14.050Z,5.83
2019-03-11T03:26:41.978Z,5.80
2019-03-11T03:29:09.983Z,5.67
2019-03-11T03:31:38.003Z,6.63
2019-03-11T03:34:08.681Z,6.03
2019-03-11T03:36:36.573Z,6.70
2019-03-11T03:39:05.801Z,5.87
2019-03-11T03:41:33.766Z,6.50
2019-03-11T03:44:01.649Z,7.00
2019-03-11T03:46:29.569Z,6.87
2019-03-11T03:48:57.505Z,6.03
2019-03-11T03:51:25.420Z,6.20
2019-03-11T03:53:53.319Z,5.70
2019-03-11T03:56:21.349Z,6.00
2019-03-11T03:58:49.602Z,6.80
2019-03-11T04:01:17.700Z,5.90
2019-03-11T04:03:45.644Z,6.63
2019-03-11T04:06:13.851Z,6.63
2019-03-11T04:08:41.820Z,6.20
2019-03-11T04:11:09.761Z,6.77
2019-03-11T04:13:37.659Z,6.40
2019-03-11T04:16:05.669Z,6.47
2019-03-11T04:18:53.012Z,6.10
2019-03-11T04:21:21.335Z,6.00
2019-03-11T04:23:49.381Z,5.30
2019-03-11T04:26:17.399Z,5.57
2019-03-11T04:28:45.341Z,6.10
2019-03-11T04:31:13.323Z,6.40
2019-03-11T04:33:41.633Z,4.57
2019-03-11T04:36:09.873Z,5.97
2019-03-11T04:38:37.841Z,5.87
2019-03-11T04:41:05.753Z,5.70
2019-03-11T04:43:33.667Z,5.43
2019-03-11T04:46:01.685Z,5.40
2019-03-11T04:48:29.733Z,5.73
2019-03-11T04:50:59.153Z,5.90
2019-03-11T04:53:27.110Z,6.30
2019-03-11T04:55:55.056Z,5.87
2019-03-11T04:58:22.962Z,5.20
2019-03-11T05:00:50.844Z,5.93
2019-03-11T05:03:18.814Z,5.90
2019-03-11T05:05:46.786Z,5.93
2019-03-11T05:08:15.016Z,7.23
2019-03-11T05:10:42.965Z,6.43
2019-03-11T05:13:10.849Z,6.23
2019-03-11T05:15:38.835Z,6.20
2019-03-11T05:18:06.821Z,6.60
2019-03-11T05:20:34.720Z,6.27
2019-03-11T05:23:02.641Z,6.50
2019-03-11T05:25:30.740Z,6.70
2019-03-11T05:27:58.705Z,6.67
2019-03-11T05:30:26.717Z,6.50
2019-03-11T05:32:54.672Z,5.90
2019-03-11T05:35:22.703Z,6.50
2019-03-11T05:37:50.708Z,7.53
2019-03-11T05:40:18.697Z,6.03
2019-03-11T05:42:46.566Z,6.80
2019-03-11T05:45:14.630Z,6.40
2019-03-11T05:47:42.662Z,6.17
2019-03-11T05:50:11.375Z,5.93
2019-03-11T05:52:39.452Z,5.90
2019-03-11T05:55:08.013Z,5.30
2019-03-11T05:57:35.912Z,5.60
2019-03-11T06:00:04.834Z,5.50
2019-03-11T06:02:32.759Z,4.90
2019-03-11T06:05:00.710Z,5.77
2019-03-11T06:07:28.633Z,5.00
2019-03-11T06:09:56.532Z,5.20
2019-03-11T06:12:24.509Z,4.90
2019-03-11T06:14:52.548Z,5.17
2019-03-11T06:17:20.539Z,6.47
2019-03-11T06:19:50.103Z,5.03
2019-03-11T06:22:21.279Z,5.30
2019-03-11T06:24:49.469Z,5.57
2019-03-11T06:27:17.472Z,5.50
2019-03-11T06:29:45.413Z,6.10
2019-03-11T06:32:13.354Z,5.97
2019-03-11T06:34:41.325Z,6.13
2019-03-11T06:37:09.289Z,6.37
2019-03-11T06:39:37.189Z,5.70
2019-03-11T06:42:05.394Z,6.53
2019-03-11T06:44:33.341Z,6.00
2019-03-11T06:47:01.233Z,5.17
2019-03-11T06:49:29.172Z,5.40
2019-03-11T06:51:57.068Z,4.70
2019-03-11T06:54:24.972Z,5.10
2019-03-11T06:56:52.877Z,4.83
2019-03-11T06:59:20.769Z,5.43
2019-03-11T07:01:48.675Z,5.10
2019-03-11T07:04:16.578Z,6.30
2019-03-11T07:06:44.503Z,5.67
2019-03-11T07:09:12.471Z,4.50
2019-03-11T07:11:40.391Z,4.07
2019-03-11T07:14:08.519Z,4.70
2019-03-11T07:16:36.522Z,4.73
2019-03-11T07:19:04.425Z,5.13
2019-03-11T07:21:32.358Z,5.90
2019-03-11T07:24:00.265Z,4.80
2019-03-11T07:26:28.162Z,4.47
2019-03-11T07:28:56.247Z,4.70
2019-03-11T07:31:24.218Z,5.27
2019-03-11T07:33:52.157Z,4.70
2019-03-11T07:36:20.124Z,5.67
2019-03-11T07:38:48.129Z,4.93
2019-03-11T07:41:16.090Z,4.83
2019-03-11T07:43:44.090Z,4.87
2019-03-11T07:46:11.993Z,5.50
2019-03-11T07:48:39.964Z,4.30
2019-03-11T07:51:07.957Z,3.97
2019-03-11T07:53:35.900Z,4.43
2019-03-11T07:56:03.882Z,4.43
2019-03-11T07:58:31.910Z,5.27
2019-03-11T08:00:59.971Z,4.67
2019-03-11T08:03:27.876Z,4.10
2019-03-11T08:05:55.852Z,5.30
2019-03-11T08:08:23.752Z,4.07
2019-03-11T08:10:51.687Z,5.47
2019-03-11T08:13:19.740Z,3.93
2019-03-11T08:15:47.644Z,4.20
2019-03-11T08:18:15.604Z,4.53
2019-03-11T08:20:43.563Z,4.60
2019-03-11T08:23:11.458Z,4.57
2019-03-11T08:25:39.351Z,4.43
2019-03-11T08:28:07.496Z,4.87
2019-03-11T08:30:35.519Z,5.27
2019-03-11T08:33:05.923Z,4.47
2019-03-11T08:35:33.925Z,4.00
2019-03-11T08:38:04.972Z,3.50
2019-03-11T08:40:31.544Z,3.70
2019-03-11T08:42:59.578Z,4.10
2019-03-11T08:45:27.549Z,4.27
2019-03-11T08:47:55.467Z,4.63
2019-03-11T08:50:23.436Z,4.50
2019-03-11T08:52:51.403Z,4.03
2019-03-11T08:55:19.642Z,4.37
2019-03-11T08:57:47.566Z,5.70
2019-03-11T09:00:15.506Z,4.20
2019-03-11T09:02:43.445Z,5.00
2019-03-11T09:05:11.418Z,4.53
2019-03-11T09:07:40.331Z,3.90
2019-03-11T09:10:09.650Z,4.10
2019-03-11T09:12:38.664Z,3.97
2019-03-11T09:15:07.054Z,4.70
2019-03-11T09:17:35.062Z,5.30
2019-03-11T09:20:02.994Z,4.33
2019-03-11T09:22:31.006Z,4.60
2019-03-11T09:24:58.999Z,4.93
2019-03-11T09:27:27.079Z,4.50
2019-03-11T09:29:55.090Z,4.37
2019-03-11T09:32:23.121Z,4.63
2019-03-11T09:34:51.157Z,4.80
2019-03-11T09:37:19.126Z,3.93
2019-03-11T09:39:47.091Z,4.70
2019-03-11T09:42:15.035Z,4.97
2019-03-11T09:44:45.993Z,4.63
2019-03-11T09:47:15.028Z,5.03
2019-03-11T09:49:43.236Z,4.53
2019-03-11T09:52:12.496Z,4.40
2019-03-11T09:54:42.030Z,4.40
2019-03-11T09:57:10.037Z,5.03
2019-03-11T09:59:38.129Z,5.20
2019-03-11T10:02:08.092Z,5.30
2019-03-11T10:04:36.070Z,5.50
2019-03-11T10:07:03.974Z,5.10
2019-03-11T10:09:32.099Z,6.03
2019-03-11T10:12:00.130Z,5.33
2019-03-11T10:14:28.135Z,5.03
2019-03-11T10:16:56.306Z,4.57
2019-03-11T10:19:24.309Z,4.77
2019-03-11T10:21:52.270Z,4.60
2019-03-11T10:24:20.268Z,4.87
2019-03-11T10:26:48.217Z,4.90
2019-03-11T10:29:16.257Z,4.90
2019-03-11T10:31:44.237Z,4.90
2019-03-11T10:34:12.336Z,4.70
2019-03-11T10:36:40.286Z,4.63
2019-03-11T10:39:08.799Z,5.00
2019-03-11T10:41:36.745Z,5.43
2019-03-11T10:44:04.710Z,5.07
2019-03-11T10:46:32.611Z,5.13
2019-03-11T10:49:00.563Z,4.40
2019-03-11T10:51:28.542Z,4.73
2019-03-11T10:53:56.600Z,4.90
2019-03-11T10:56:24.568Z,5.00
2019-03-11T10:58:52.580Z,4.13
2019-03-11T11:01:20.513Z,4.70
2019-03-11T11:03:48.469Z,3.90
2019-03-11T11:06:17.300Z,4.20
2019-03-11T11:08:45.398Z,4.47
2019-03-11T11:11:13.437Z,4.77
2019-03-11T11:13:41.329Z,3.97
2019-03-11T11:16:09.692Z,4.67
2019-03-11T11:18:37.750Z,4.03
2019-03-11T11:21:05.743Z,4.00
2019-03-11T11:23:33.725Z,3.87
2019-03-11T11:26:01.799Z,4.37
2019-03-11T11:28:29.727Z,3.50
2019-03-11T11:30:57.656Z,3.93
2019-03-11T11:33:25.676Z,4.33
2019-03-11T11:35:53.605Z,3.97
2019-03-11T11:38:21.528Z,3.97
2019-03-11T11:40:49.432Z,3.93
2019-03-11T11:43:17.757Z,4.17
2019-03-11T11:45:45.772Z,3.90
2019-03-11T11:48:14.150Z,3.83
2019-03-11T11:50:42.191Z,3.73
2019-03-11T11:53:10.151Z,3.83
2019-03-11T11:55:38.061Z,3.23
2019-03-11T11:58:06.507Z,3.50
2019-03-11T12:00:34.804Z,3.93
2019-03-11T12:03:02.789Z,4.23
2019-03-11T12:05:30.961Z,4.47
2019-03-11T12:07:59.383Z,4.23
2019-03-11T12:10:27.452Z,3.70
2019-03-11T12:12:55.398Z,4.27
2019-03-11T12:15:23.566Z,4.60
2019-03-11T12:17:51.473Z,4.30
2019-03-11T12:20:20.305Z,4.83
2019-03-11T12:22:48.190Z,4.63
2019-03-11T12:25:16.128Z,4.50
2019-03-11T12:27:53.000Z,4.50
2019-03-11T12:30:15.404Z,4.30
2019-03-11T12:32:43.502Z,4.17
2019-03-11T12:35:11.673Z,4.33
2019-03-11T12:37:39.607Z,3.80
2019-03-11T12:40:08.342Z,3.90
2019-03-11T12:42:36.485Z,5.13
2019-03-11T12:45:04.889Z,4.57
2019-03-11T12:47:32.907Z,4.50
2019-03-11T12:50:00.857Z,4.80
2019-03-11T12:52:28.780Z,4.43
2019-03-11T12:54:56.852Z,4.50
2019-03-11T12:57:24.789Z,4.50
2019-03-11T12:59:52.776Z,5.40
2019-03-11T13:02:20.810Z,4.50
2019-03-11T13:04:48.826Z,4.27
2019-03-11T13:07:17.125Z,4.70
2019-03-11T13:09:45.172Z,4.37
2019-03-11T13:12:13.551Z,3.60
2019-03-11T13:14:41.724Z,3.93
2019-03-11T13:17:11.677Z,3.87
2019-03-11T13:19:39.723Z,4.17
2019-03-11T13:22:07.746Z,4.40
2019-03-11T13:24:35.767Z,4.20
2019-03-11T13:27:03.702Z,4.43
2019-03-11T13:29:31.665Z,4.50
2019-03-11T13:31:59.583Z,3.93
2019-03-11T13:34:27.894Z,4.43
2019-03-11T13:36:57.401Z,4.47
2019-03-11T13:39:25.393Z,4.17
2019-03-11T13:41:53.447Z,3.80
2019-03-11T13:44:21.675Z,4.57
2019-03-11T13:46:49.651Z,4.40
2019-03-11T13:49:17.659Z,4.90
2019-03-11T13:51:45.771Z,3.97
2019-03-11T13:54:13.952Z,4.93
2019-03-11T13:56:41.980Z,4.27
2019-03-11T13:59:09.950Z,4.17
2019-03-11T14:01:38.195Z,5.00
2019-03-11T14:04:06.301Z,4.70
2019-03-11T14:06:34.271Z,4.63
2019-03-11T14:09:02.264Z,4.70
2019-03-11T14:11:30.226Z,4.27
2019-03-11T14:13:58.191Z,4.70
2019-03-11T14:16:26.088Z,4.80
2019-03-11T14:18:54.248Z,4.60
2019-03-11T14:21:25.946Z,3.50
2019-03-11T14:23:51.872Z,4.03
2019-03-11T14:26:19.953Z,4.60
2019-03-11T14:28:47.926Z,3.83
2019-03-11T14:31:15.880Z,4.80
2019-03-11T14:33:43.921Z,4.63
2019-03-11T14:36:12.164Z,4.37
2019-03-11T14:38:40.217Z,4.03
2019-03-11T14:41:08.142Z,4.40
2019-03-11T14:43:36.081Z,3.93
2019-03-11T14:46:04.070Z,3.93
2019-03-11T14:48:32.724Z,3.50
2019-03-11T14:51:00.721Z,4.07
2019-03-11T14:53:28.753Z,3.53
2019-03-11T14:55:56.887Z,3.57
2019-03-11T14:58:29.297Z,4.20
2019-03-11T15:00:54.484Z,4.20
2019-03-11T15:03:22.572Z,3.73
2019-03-11T15:05:50.505Z,4.50
2019-03-11T15:08:18.451Z,3.97
2019-03-11T15:10:46.446Z,3.90
2019-03-11T15:13:14.357Z,4.43
2019-03-11T15:15:42.360Z,4.03
2019-03-11T15:18:10.386Z,4.00
2019-03-11T15:20:38.348Z,3.87
2019-03-11T15:23:18.990Z,3.77
2019-03-11T15:25:35.987Z,3.77
2019-03-11T15:28:03.968Z,4.17
2019-03-11T15:30:32.582Z,3.77
2019-03-11T15:33:00.611Z,3.80
2019-03-11T15:35:28.628Z,3.37
2019-03-11T15:37:56.506Z,4.10
2019-03-11T15:40:24.494Z,3.43
2019-03-11T15:42:52.783Z,3.20
2019-03-11T15:45:20.847Z,4.03
2019-03-11T15:47:48.801Z,3.80
2019-03-11T15:50:17.906Z,4.23
2019-03-11T15:52:45.855Z,4.53
2019-03-11T15:55:14.174Z,4.07
2019-03-11T15:57:42.339Z,4.20
2019-03-11T16:00:11.302Z,5.07
2019-03-11T16:02:39.257Z,3.93
2019-03-11T16:05:07.182Z,4.43
2019-03-11T16:07:35.139Z,4.23
2019-03-11T16:10:03.344Z,4.40
2019-03-11T16:12:31.391Z,4.20
2019-03-11T16:14:59.348Z,3.93
2019-03-11T16:17:27.404Z,3.73
2019-03-11T16:19:56.478Z,4.27
2019-03-11T16:22:26.331Z,4.70
2019-03-11T16:24:54.216Z,4.60
2019-03-11T16:27:22.170Z,3.70
2019-03-11T16:29:50.242Z,3.93
2019-03-11T16:32:18.741Z,4.57
2019-03-11T16:34:46.742Z,4.10
2019-03-11T16:37:14.803Z,4.63
2019-03-11T16:39:45.351Z,5.10
2019-03-11T16:42:13.503Z,4.33
2019-03-11T16:44:41.712Z,4.10
2019-03-11T16:47:09.893Z,3.93
2019-03-11T16:49:37.787Z,4.00
2019-03-11T16:52:06.031Z,3.73
2019-03-11T16:54:34.180Z,4.30
2019-03-11T16:57:02.172Z,3.77
2019-03-11T16:59:30.173Z,4.00
2019-03-11T17:01:58.101Z,3.73
2019-03-11T17:04:26.210Z,3.73
2019-03-11T17:06:54.188Z,3.67
2019-03-11T17:09:22.191Z,3.33
2019-03-11T17:11:50.095Z,3.83
2019-03-11T17:14:18.023Z,3.20
2019-03-11T17:16:45.918Z,3.10
2019-03-11T17:19:13.879Z,3.50
2019-03-11T17:21:41.876Z,3.47
2019-03-11T17:24:09.849Z,4.37
2019-03-11T17:26:37.888Z,3.17
2019-03-11T17:29:06.000Z,3.53
2019-03-11T17:31:33.982Z,3.17
2019-03-11T17:34:01.869Z,4.23
2019-03-11T17:36:30.069Z,3.53
2019-03-11T17:38:58.173Z,3.97
2019-03-11T17:41:26.457Z,3.63
2019-03-11T17:43:54.503Z,3.80
2019-03-11T17:46:22.426Z,3.60
2019-03-11T17:48:50.361Z,3.53
2019-03-11T17:51:18.368Z,3.57
2019-03-11T17:53:46.371Z,3.40
2019-03-11T17:56:14.314Z,3.73
2019-03-11T17:58:42.256Z,3.23
2019-03-11T18:01:10.442Z,3.23
2019-03-11T18:03:38.660Z,3.80
2019-03-11T18:06:11.543Z,3.80
2019-03-11T18:08:36.475Z,3.77
2019-03-11T18:11:04.425Z,3.77
2019-03-11T18:13:32.354Z,3.80
2019-03-11T18:16:00.436Z,3.80
2019-03-11T18:18:32.889Z,4.00
2019-03-11T18:20:59.771Z,3.47
2019-03-11T18:23:28.023Z,3.40
2019-03-11T18:25:56.026Z,3.70
2019-03-11T18:28:24.032Z,3.30
2019-03-11T18:30:52.039Z,3.43
2019-03-11T18:33:19.972Z,4.30
2019-03-11T18:35:48.126Z,3.30
2019-03-11T18:38:16.171Z,4.03
2019-03-11T18:40:44.105Z,3.80
2019-03-11T18:43:20.089Z,3.33
2019-03-11T18:45:42.068Z,3.90
2019-03-11T18:48:10.018Z,3.60
2019-03-11T18:50:37.941Z,4.63
2019-03-11T18:53:05.888Z,3.50
2019-03-11T18:55:33.870Z,3.80
2019-03-11T18:58:01.855Z,4.83
2019-03-11T19:00:29.815Z,4.17
2019-03-11T19:02:57.988Z,3.83
2019-03-11T19:05:26.011Z,4.23
2019-03-11T19:07:55.399Z,3.80
2019-03-11T19:10:23.485Z,4.07
2019-03-11T19:12:51.498Z,3.63
2019-03-11T19:15:19.606Z,3.13
2019-03-11T19:17:47.505Z,3.53
2019-03-11T19:20:16.308Z,3.47
2019-03-11T19:22:44.316Z,3.47
2019-03-11T19:25:12.396Z,3.17
2019-03-11T19:27:40.307Z,3.30
2019-03-11T19:30:10.513Z,4.17
2019-03-11T19:32:38.480Z,3.67
2019-03-11T19:35:06.417Z,4.33
2019-03-11T19:37:34.401Z,4.03
2019-03-11T19:40:02.374Z,3.70
2019-03-11T19:42:30.444Z,4.40
2019-03-11T19:44:58.415Z,4.77
2019-03-11T19:47:26.303Z,3.97
2019-03-11T19:49:54.330Z,4.73
2019-03-11T19:52:22.513Z,4.10
2019-03-11T19:54:50.566Z,4.00
2019-03-11T19:57:18.474Z,3.80
2019-03-11T19:59:46.657Z,4.30
2019-03-11T20:02:14.685Z,4.53
2019-03-11T20:04:42.740Z,4.20
2019-03-11T20:07:12.610Z,3.83
2019-03-11T20:09:40.663Z,4.07
2019-03-11T20:12:08.631Z,4.17
2019-03-11T20:14:36.639Z,4.93
2019-03-11T20:17:04.570Z,3.67
2019-03-11T20:19:32.480Z,4.43
2019-03-11T20:22:00.447Z,3.87
2019-03-11T20:24:28.457Z,4.07
2019-03-11T20:26:56.412Z,3.70
2019-03-11T20:29:24.569Z,3.93
2019-03-11T20:31:52.554Z,4.13
2019-03-11T20:34:20.862Z,4.30
2019-03-11T20:36:49.025Z,4.53
2019-03-11T20:39:17.237Z,4.10
2019-03-11T20:41:45.849Z,4.57
2019-03-11T20:44:13.828Z,4.27
2019-03-11T20:46:41.984Z,4.50
2019-03-11T20:49:09.915Z,4.27
2019-03-11T20:51:37.966Z,4.57
2019-03-11T20:54:05.928Z,4.33
2019-03-11T20:56:33.903Z,4.90
2019-03-11T20:59:01.839Z,4.37
2019-03-11T21:01:29.806Z,3.97
2019-03-11T21:03:58.119Z,5.00
2019-03-11T21:06:26.043Z,4.17
2019-03-11T21:08:53.944Z,4.08
2019-03-11T21:11:21.891Z,4.57
2019-03-11T21:13:49.874Z,4.87
2019-03-11T21:16:18.331Z,4.77
2019-03-11T21:18:46.316Z,4.17
2019-03-11T21:21:14.249Z,4.60
2019-03-11T21:23:42.235Z,4.20
2019-03-11T21:26:10.279Z,4.40
2019-03-11T21:28:38.268Z,4.10
2019-03-11T21:31:06.338Z,4.90
2019-03-11T21:33:34.327Z,5.33
2019-03-11T21:36:02.518Z,4.97
2019-03-11T21:38:30.532Z,5.00
2019-03-11T21:40:58.478Z,5.30
2019-03-11T21:43:26.490Z,5.03
2019-03-11T21:45:54.488Z,5.97
2019-03-11T21:48:22.591Z,6.03
2019-03-11T21:50:50.550Z,6.63
2019-03-11T21:53:18.563Z,7.10
2019-03-11T21:55:46.542Z,6.70
2019-03-11T21:58:14.541Z,6.50
2019-03-11T22:00:42.475Z,7.40
2019-03-11T22:03:10.433Z,7.77
2019-03-11T22:05:38.341Z,6.70
2019-03-11T22:08:06.408Z,6.00
2019-03-11T22:10:34.455Z,6.67
2019-03-11T22:13:02.475Z,7.30
2019-03-11T22:15:30.380Z,7.70
2019-03-11T22:17:58.381Z,8.23
2019-03-11T22:20:26.485Z,7.53
2019-03-11T22:22:54.427Z,8.73
2019-03-11T22:25:22.352Z,8.33
2019-03-11T22:27:50.834Z,8.13
2019-03-11T22:30:19.421Z,7.70
2019-03-11T22:32:48.069Z,7.80
2019-03-11T22:35:16.436Z,8.40
2019-03-11T22:37:46.523Z,8.10
2019-03-11T22:40:16.545Z,4.33
2019-03-11T22:48:10.359Z,7.30
2019-03-11T22:52:21.950Z,8.13
2019-03-11T22:54:51.577Z,7.70
2019-03-11T22:57:21.328Z,7.37
2019-03-11T22:59:51.022Z,8.33
2019-03-11T23:02:21.717Z,7.93
2019-03-11T23:04:51.485Z,7.27
2019-03-11T23:07:24.089Z,7.00
2019-03-11T23:09:53.668Z,8.77
2019-03-11T23:12:23.298Z,8.37
2019-03-11T23:14:54.578Z,9.77
2019-03-11T23:17:27.391Z,8.97
2019-03-11T23:19:57.100Z,9.77
2019-03-11T23:22:26.680Z,9.03
2019-03-11T23:24:56.434Z,9.20
2019-03-11T23:27:25.908Z,9.87
2019-03-11T23:29:55.599Z,8.50
2019-03-11T23:32:25.005Z,8.97
2019-03-11T23:34:54.552Z,8.83
2019-03-11T23:37:24.035Z,8.53
2019-03-11T23:39:53.571Z,8.23
2019-03-11T23:42:23.159Z,7.77
2019-03-11T23:44:52.527Z,7.10
2019-03-11T23:47:22.023Z,9.90
2019-03-11T23:49:51.452Z,8.10
2019-03-11T23:52:21.073Z,8.43
2019-03-11T23:54:50.542Z,8.10
2019-03-11T23:57:19.973Z,8.30
2019-03-11T23:59:49.553Z,8.03
